createdAt,value
2019-05-28T00:00:42.231Z,17.11
2019-05-28T00:01:42.207Z,17.14
2019-05-28T00:02:42.215Z,17.04
2019-05-28T00:03:42.269Z,17.16
2019-05-28T00:04:42.175Z,17.01
2019-05-28T00:05:42.173Z,17.09
2019-05-28T00:06:42.169Z,17.04
2019-05-28T00:07:42.143Z,17.12
2019-05-28T00:08:42.133Z,17.06
2019-05-28T00:09:42.140Z,17.12
2019-05-28T00:10:42.101Z,17.04
2019-05-28T00:11:42.108Z,17.04
2019-05-28T00:12:42.083Z,17.05
2019-05-28T00:13:42.078Z,17.09
2019-05-28T00:14:42.082Z,17.11
2019-05-28T00:15:42.048Z,17.05
2019-05-28T00:16:42.043Z,17.02
2019-05-28T00:17:42.392Z,17.04
2019-05-28T00:18:42.014Z,17.01
2019-05-28T00:19:42.023Z,17.05
2019-05-28T00:20:42.008Z,17.08
2019-05-28T00:21:41.995Z,17.06
2019-05-28T00:22:41.991Z,17.09
2019-05-28T00:23:41.966Z,17.04
2019-05-28T00:24:41.997Z,17.08
2019-05-28T00:25:41.949Z,17.02
2019-05-28T00:26:41.923Z,17.01
2019-05-28T00:27:41.921Z,17.05
2019-05-28T00:28:41.930Z,16.96
2019-05-28T00:29:41.892Z,16.97
2019-05-28T00:30:41.895Z,17.02
2019-05-28T00:31:41.880Z,16.94
2019-05-28T00:32:41.874Z,16.94
2019-05-28T00:33:41.866Z,16.96
2019-05-28T00:34:41.855Z,16.93
2019-05-28T00:35:41.831Z,16.96
2019-05-28T00:36:41.823Z,16.87
2019-05-28T00:37:41.835Z,16.91
2019-05-28T00:38:41.808Z,16.87
2019-05-28T00:39:41.798Z,16.71
2019-05-28T00:40:41.772Z,16.81
2019-05-28T00:41:41.760Z,16.72
2019-05-28T00:42:41.755Z,16.65
2019-05-28T00:43:41.771Z,16.58
2019-05-28T00:44:41.737Z,16.61
2019-05-28T00:45:41.714Z,16.57
2019-05-28T00:46:41.715Z,16.50
2019-05-28T00:47:41.689Z,16.54
2019-05-28T00:48:41.963Z,16.42
2019-05-28T00:49:41.691Z,16.39
2019-05-28T00:50:41.666Z,16.39
2019-05-28T00:51:41.661Z,16.32
2019-05-28T00:52:41.639Z,16.29
2019-05-28T00:53:41.633Z,16.33
2019-05-28T00:54:41.646Z,16.32
2019-05-28T00:55:41.633Z,16.32
2019-05-28T00:56:41.624Z,16.23
2019-05-28T00:57:41.589Z,16.28
2019-05-28T00:58:41.578Z,16.26
2019-05-28T00:59:41.561Z,16.23
2019-05-28T01:00:41.563Z,16.16
2019-05-28T01:01:41.545Z,16.15
2019-05-28T01:02:41.539Z,16.20
2019-05-28T01:03:41.519Z,16.13
2019-05-28T01:04:41.529Z,16.05
2019-05-28T01:05:41.490Z,16.09
2019-05-28T01:06:41.490Z,16.15
2019-05-28T01:07:41.485Z,16.21
2019-05-28T01:08:41.462Z,16.10
2019-05-28T01:09:41.470Z,16.20
2019-05-28T01:10:41.443Z,16.24
2019-05-28T01:11:41.462Z,16.12
2019-05-28T01:12:41.443Z,16.16
2019-05-28T01:13:41.406Z,16.24
2019-05-28T01:14:41.392Z,16.15
2019-05-28T01:15:41.405Z,16.16
2019-05-28T01:16:41.379Z,16.02
2019-05-28T01:17:41.629Z,16.02
2019-05-28T01:18:41.365Z,16.04
2019-05-28T01:19:41.332Z,15.97
2019-05-28T01:20:41.329Z,15.94
2019-05-28T01:21:42.679Z,15.92
2019-05-28T01:22:41.331Z,15.90
2019-05-28T01:23:41.290Z,15.80
2019-05-28T01:24:41.278Z,15.73
2019-05-28T01:25:41.265Z,15.79
2019-05-28T01:26:41.253Z,15.65
2019-05-28T01:27:41.241Z,15.67
2019-05-28T01:28:41.254Z,15.61
2019-05-28T01:29:41.233Z,15.59
2019-05-28T01:30:54.893Z,15.51
2019-05-28T01:31:42.218Z,15.62
2019-05-28T01:32:41.188Z,15.58
2019-05-28T01:33:41.191Z,15.58
2019-05-28T01:34:41.167Z,15.57
2019-05-28T01:35:41.156Z,15.47
2019-05-28T01:36:41.152Z,15.47
2019-05-28T01:37:41.154Z,15.39
2019-05-28T01:38:41.160Z,15.39
2019-05-28T01:39:41.116Z,15.27
2019-05-28T01:40:41.127Z,15.29
2019-05-28T01:41:41.086Z,15.33
2019-05-28T01:42:41.092Z,15.29
2019-05-28T01:43:41.070Z,15.19
2019-05-28T01:44:41.058Z,15.22
2019-05-28T01:45:41.097Z,15.19
2019-05-28T01:46:41.044Z,15.15
2019-05-28T01:47:41.027Z,15.10
2019-05-28T01:48:41.016Z,15.02
2019-05-28T01:49:41.003Z,15.14
2019-05-28T01:50:40.990Z,15.06
2019-05-28T01:51:41.030Z,15.02
2019-05-28T01:52:40.965Z,14.94
2019-05-28T01:53:40.948Z,15.00
2019-05-28T01:54:40.947Z,14.88
2019-05-28T01:55:40.931Z,14.86
2019-05-28T01:56:40.967Z,14.92
2019-05-28T01:57:40.919Z,14.86
2019-05-28T01:58:40.899Z,14.84
2019-05-28T01:59:40.886Z,14.81
2019-05-28T02:00:40.872Z,14.73
2019-05-28T02:01:40.886Z,14.81
2019-05-28T02:02:40.895Z,14.70
2019-05-28T02:03:40.842Z,14.60
2019-05-28T02:04:40.841Z,14.70
2019-05-28T02:05:40.819Z,14.77
2019-05-28T02:06:40.831Z,14.60
2019-05-28T02:07:40.803Z,14.59
2019-05-28T02:08:40.816Z,14.60
2019-05-28T02:09:40.789Z,14.62
2019-05-28T02:10:40.766Z,14.63
2019-05-28T02:11:40.760Z,14.69
2019-05-28T02:12:40.816Z,14.62
2019-05-28T02:13:40.739Z,14.63
2019-05-28T02:14:40.752Z,14.60
2019-05-28T02:15:40.714Z,14.60
2019-05-28T02:16:40.725Z,14.70
2019-05-28T02:17:40.687Z,14.73
2019-05-28T02:18:40.675Z,14.62
2019-05-28T02:19:40.931Z,14.72
2019-05-28T02:20:40.668Z,14.62
2019-05-28T02:21:40.642Z,14.78
2019-05-28T02:22:40.635Z,14.78
2019-05-28T02:23:40.613Z,14.62
2019-05-28T02:24:40.624Z,14.62
2019-05-28T02:25:40.597Z,14.73
2019-05-28T02:26:40.593Z,14.63
2019-05-28T02:27:40.572Z,14.68
2019-05-28T02:28:40.580Z,14.69
2019-05-28T02:29:40.633Z,14.59
2019-05-28T02:30:40.559Z,14.73
2019-05-28T02:31:40.533Z,14.62
2019-05-28T02:32:40.522Z,14.62
2019-05-28T02:33:40.515Z,14.63
2019-05-28T02:34:40.508Z,14.59
2019-05-28T02:35:40.525Z,14.60
2019-05-28T02:36:40.474Z,14.66
2019-05-28T02:37:40.470Z,14.55
2019-05-28T02:38:40.458Z,14.48
2019-05-28T02:39:40.441Z,14.62
2019-05-28T02:40:40.434Z,14.62
2019-05-28T02:41:40.450Z,14.58
2019-05-28T02:42:40.415Z,14.59
2019-05-28T02:43:40.419Z,14.53
2019-05-28T02:44:40.385Z,14.54
2019-05-28T02:45:40.371Z,14.58
2019-05-28T02:46:40.519Z,14.55
2019-05-28T02:47:40.355Z,14.55
2019-05-28T02:48:40.344Z,14.53
2019-05-28T02:49:40.326Z,14.54
2019-05-28T02:50:40.319Z,14.45
2019-05-28T02:51:40.311Z,14.48
2019-05-28T02:52:40.316Z,14.48
2019-05-28T02:53:40.293Z,14.50
2019-05-28T02:54:40.306Z,14.47
2019-05-28T02:55:40.273Z,14.44
2019-05-28T02:56:40.252Z,14.44
2019-05-28T02:57:40.259Z,14.36
2019-05-28T02:58:40.270Z,14.40
2019-05-28T02:59:40.216Z,14.40
2019-05-28T03:00:40.223Z,14.37
2019-05-28T03:01:44.065Z,14.26
2019-05-28T03:02:40.187Z,14.37
2019-05-28T03:03:40.197Z,14.30
2019-05-28T03:04:40.177Z,14.32
2019-05-28T03:05:40.165Z,14.29
2019-05-28T03:06:40.166Z,14.37
2019-05-28T03:07:40.129Z,14.32
2019-05-28T03:08:40.124Z,14.44
2019-05-28T03:09:40.134Z,14.44
2019-05-28T03:11:01.562Z,14.45
2019-05-28T03:11:41.082Z,14.44
2019-05-28T03:12:40.078Z,14.50
2019-05-28T03:13:40.071Z,14.47
2019-05-28T03:14:40.056Z,14.50
2019-05-28T03:15:40.070Z,14.59
2019-05-28T03:16:40.040Z,14.58
2019-05-28T03:17:40.018Z,14.54
2019-05-28T03:18:40.004Z,14.53
2019-05-28T03:19:40.010Z,14.62
2019-05-28T03:20:40.057Z,14.60
2019-05-28T03:21:39.978Z,14.62
2019-05-28T03:22:39.982Z,14.60
2019-05-28T03:23:39.956Z,14.62
2019-05-28T03:24:39.938Z,14.66
2019-05-28T03:25:39.990Z,14.54
2019-05-28T03:26:39.956Z,14.58
2019-05-28T03:27:39.908Z,14.72
2019-05-28T03:28:39.902Z,14.59
2019-05-28T03:29:39.886Z,14.59
2019-05-28T03:30:39.886Z,14.68
2019-05-28T03:31:39.869Z,14.58
2019-05-28T03:32:39.884Z,14.63
2019-05-28T03:33:39.877Z,14.69
2019-05-28T03:34:42.099Z,14.68
2019-05-28T03:35:39.829Z,14.68
2019-05-28T03:36:39.815Z,14.59
2019-05-28T03:37:39.820Z,14.70
2019-05-28T03:38:39.792Z,14.78
2019-05-28T03:39:39.781Z,14.78
2019-05-28T03:40:39.782Z,14.72
2019-05-28T03:41:39.767Z,14.73
2019-05-28T03:42:39.817Z,14.78
2019-05-28T03:43:39.746Z,14.73
2019-05-28T03:44:39.726Z,14.78
2019-05-28T03:45:39.718Z,14.78
2019-05-28T03:46:39.711Z,14.77
2019-05-28T03:47:39.728Z,14.73
2019-05-28T03:48:39.709Z,14.84
2019-05-28T03:49:39.690Z,14.85
2019-05-28T03:50:39.659Z,14.82
2019-05-28T03:51:39.656Z,14.85
2019-05-28T03:52:39.655Z,14.92
2019-05-28T03:53:39.656Z,14.88
2019-05-28T03:54:39.622Z,14.88
2019-05-28T03:55:39.610Z,14.85
2019-05-28T03:56:39.590Z,14.94
2019-05-28T03:57:39.593Z,14.84
2019-05-28T03:58:39.581Z,14.92
2019-05-28T03:59:39.561Z,15.00
2019-05-28T04:00:39.570Z,15.00
2019-05-28T04:01:39.586Z,15.00
2019-05-28T04:02:39.518Z,15.04
2019-05-28T04:03:39.524Z,15.10
2019-05-28T04:04:39.493Z,15.14
2019-05-28T04:05:39.524Z,15.04
2019-05-28T04:06:39.474Z,15.06
2019-05-28T04:07:39.471Z,15.14
2019-05-28T04:08:39.520Z,15.09
2019-05-28T04:09:39.447Z,15.22
2019-05-28T04:10:39.423Z,15.07
2019-05-28T04:11:44.875Z,15.19
2019-05-28T04:12:40.403Z,15.19
2019-05-28T04:13:39.391Z,15.15
2019-05-28T04:14:39.396Z,15.28
2019-05-28T04:15:39.368Z,15.22
2019-05-28T04:16:39.357Z,15.19
2019-05-28T04:17:39.352Z,15.36
2019-05-28T04:18:39.471Z,15.36
2019-05-28T04:19:39.370Z,15.29
2019-05-28T04:20:39.320Z,15.27
2019-05-28T04:21:39.308Z,15.43
2019-05-28T04:22:39.292Z,15.39
2019-05-28T04:23:41.808Z,15.39
2019-05-28T04:24:39.273Z,15.40
2019-05-28T04:25:39.260Z,15.43
2019-05-28T04:26:39.244Z,15.43
2019-05-28T04:27:39.233Z,15.51
2019-05-28T04:28:39.240Z,15.37
2019-05-28T04:29:39.250Z,15.43
2019-05-28T04:30:39.253Z,15.37
2019-05-28T04:31:39.203Z,15.39
2019-05-28T04:32:41.381Z,15.49
2019-05-28T04:33:39.172Z,15.51
2019-05-28T04:34:39.283Z,15.54
2019-05-28T04:35:39.176Z,15.51
2019-05-28T04:36:39.142Z,15.51
2019-05-28T04:37:39.131Z,15.54
2019-05-28T04:38:39.114Z,15.54
2019-05-28T04:39:39.102Z,15.51
2019-05-28T04:40:39.121Z,15.55
2019-05-28T04:41:39.213Z,15.51
2019-05-28T04:42:39.090Z,15.61
2019-05-28T04:43:39.139Z,15.52
2019-05-28T04:44:39.052Z,15.54
2019-05-28T04:45:39.064Z,15.47
2019-05-28T04:46:39.029Z,15.52
2019-05-28T04:47:39.017Z,15.49
2019-05-28T04:48:39.019Z,15.52
2019-05-28T04:49:38.991Z,15.62
2019-05-28T04:50:39.182Z,15.67
2019-05-28T04:51:39.015Z,15.73
2019-05-28T04:52:38.960Z,15.73
2019-05-28T04:53:38.956Z,15.79
2019-05-28T04:54:38.951Z,15.80
2019-05-28T04:55:38.978Z,15.75
2019-05-28T04:56:38.914Z,15.76
2019-05-28T04:57:38.910Z,15.77
2019-05-28T04:58:38.889Z,15.91
2019-05-28T04:59:38.899Z,16.02
2019-05-28T05:00:38.872Z,16.02
2019-05-28T05:01:38.911Z,16.09
2019-05-28T05:02:38.850Z,16.12
2019-05-28T05:03:38.861Z,16.20
2019-05-28T05:04:38.835Z,16.24
2019-05-28T05:05:38.831Z,16.32
2019-05-28T05:06:38.798Z,16.42
2019-05-28T05:07:38.843Z,16.41
2019-05-28T05:08:38.776Z,16.49
2019-05-28T05:09:38.769Z,16.49
2019-05-28T05:10:38.765Z,16.58
2019-05-28T05:11:38.767Z,16.56
2019-05-28T05:12:38.746Z,16.61
2019-05-28T05:13:38.734Z,16.64
2019-05-28T05:14:38.708Z,16.65
2019-05-28T05:15:38.708Z,16.65
2019-05-28T05:16:38.715Z,16.65
2019-05-28T05:17:38.683Z,16.68
2019-05-28T05:18:38.720Z,16.78
2019-05-28T05:19:38.662Z,16.81
2019-05-28T05:20:38.640Z,16.74
2019-05-28T05:21:38.653Z,16.76
2019-05-28T05:22:38.634Z,16.89
2019-05-28T05:23:38.614Z,17.04
2019-05-28T05:24:38.619Z,17.14
2019-05-28T05:25:38.584Z,17.29
2019-05-28T05:26:38.587Z,17.36
2019-05-28T05:27:38.581Z,17.49
2019-05-28T05:28:38.561Z,17.72
2019-05-28T05:29:38.625Z,17.72
2019-05-28T05:30:38.580Z,17.80
2019-05-28T05:31:38.540Z,18.00
2019-05-28T05:32:38.519Z,18.05
2019-05-28T05:33:38.508Z,18.07
2019-05-28T05:34:38.509Z,18.16
2019-05-28T05:35:38.514Z,18.22
2019-05-28T05:36:38.483Z,18.20
2019-05-28T05:37:38.469Z,18.34
2019-05-28T05:38:38.437Z,18.37
2019-05-28T05:39:38.437Z,18.44
2019-05-28T05:40:38.435Z,18.65
2019-05-28T05:41:38.451Z,18.70
2019-05-28T05:42:38.411Z,18.74
2019-05-28T05:43:38.398Z,18.75
2019-05-28T05:44:38.381Z,18.75
2019-05-28T05:45:38.388Z,18.70
2019-05-28T05:46:38.359Z,18.49
2019-05-28T05:47:38.675Z,18.56
2019-05-28T05:48:38.331Z,18.52
2019-05-28T05:49:38.329Z,18.50
2019-05-28T05:50:38.316Z,18.49
2019-05-28T05:51:38.315Z,18.35
2019-05-28T05:52:38.289Z,18.35
2019-05-28T05:53:38.299Z,18.40
2019-05-28T05:54:38.294Z,18.49
2019-05-28T05:55:38.285Z,18.49
2019-05-28T05:56:38.312Z,18.56
2019-05-28T05:57:38.252Z,18.60
2019-05-28T05:58:38.243Z,18.65
2019-05-28T05:59:38.218Z,18.71
2019-05-28T06:00:38.213Z,18.77
2019-05-28T06:01:38.194Z,18.80
2019-05-28T06:02:38.190Z,18.71
2019-05-28T06:03:40.653Z,18.86
2019-05-28T06:04:38.159Z,18.75
2019-05-28T06:05:38.152Z,18.86
2019-05-28T06:06:38.145Z,18.99
2019-05-28T06:07:38.159Z,18.98
2019-05-28T06:08:39.162Z,19.02
2019-05-28T06:09:38.117Z,19.19
2019-05-28T06:10:38.101Z,19.29
2019-05-28T06:11:38.092Z,19.45
2019-05-28T06:12:38.072Z,19.48
2019-05-28T06:13:38.072Z,19.59
2019-05-28T06:14:38.270Z,19.69
2019-05-28T06:15:38.061Z,19.62
2019-05-28T06:16:38.048Z,19.63
2019-05-28T06:17:38.018Z,19.59
2019-05-28T06:18:37.999Z,19.64
2019-05-28T06:19:37.995Z,19.67
2019-05-28T06:20:38.010Z,19.79
2019-05-28T06:21:37.968Z,19.84
2019-05-28T06:22:37.962Z,19.99
2019-05-28T06:23:37.937Z,20.04
2019-05-28T06:24:37.935Z,20.14
2019-05-28T06:25:37.940Z,20.25
2019-05-28T06:26:37.909Z,20.41
2019-05-28T06:27:37.946Z,20.50
2019-05-28T06:28:37.916Z,20.58
2019-05-28T06:29:37.890Z,20.72
2019-05-28T06:30:37.881Z,20.82
2019-05-28T06:31:37.874Z,21.00
2019-05-28T06:32:38.651Z,21.35
2019-05-28T06:33:37.839Z,21.61
2019-05-28T06:34:37.843Z,21.98
2019-05-28T06:35:37.831Z,22.30
2019-05-28T06:36:37.818Z,22.62
2019-05-28T06:37:37.797Z,22.91
2019-05-28T06:38:37.785Z,22.88
2019-05-28T06:39:37.805Z,22.80
2019-05-28T06:40:37.753Z,22.70
2019-05-28T06:41:37.752Z,22.39
2019-05-28T06:42:39.706Z,22.30
2019-05-28T06:43:37.755Z,22.25
2019-05-28T06:44:37.768Z,22.25
2019-05-28T06:45:37.703Z,22.20
2019-05-28T06:46:37.754Z,22.18
2019-05-28T06:47:37.683Z,22.22
2019-05-28T06:48:37.659Z,22.17
2019-05-28T06:49:37.704Z,22.08
2019-05-28T06:50:37.682Z,22.15
2019-05-28T06:51:37.653Z,22.22
2019-05-28T06:52:37.622Z,22.15
2019-05-28T06:53:37.620Z,22.25
2019-05-28T06:54:37.614Z,22.43
2019-05-28T06:55:37.601Z,22.65
2019-05-28T06:56:37.582Z,22.62
2019-05-28T06:57:37.574Z,22.60
2019-05-28T06:58:39.923Z,22.62
2019-05-28T06:59:37.555Z,22.69
2019-05-28T07:00:37.575Z,23.06
2019-05-28T07:01:37.518Z,23.27
2019-05-28T07:02:37.514Z,23.25
2019-05-28T07:03:37.504Z,23.18
2019-05-28T07:04:37.492Z,22.98
2019-05-28T07:05:37.569Z,22.81
2019-05-28T07:06:37.521Z,22.60
2019-05-28T07:07:37.453Z,22.39
2019-05-28T07:08:37.451Z,22.36
2019-05-28T07:09:37.432Z,22.41
2019-05-28T07:10:37.429Z,22.39
2019-05-28T07:11:37.419Z,22.44
2019-05-28T07:12:37.427Z,22.43
2019-05-28T07:13:37.403Z,22.55
2019-05-28T07:14:37.388Z,22.44
2019-05-28T07:15:37.375Z,22.45
2019-05-28T07:16:52.202Z,22.48
2019-05-28T07:17:38.434Z,22.60
2019-05-28T07:18:37.343Z,22.65
2019-05-28T07:19:37.317Z,22.62
2019-05-28T07:20:37.305Z,22.62
2019-05-28T07:21:37.326Z,22.66
2019-05-28T07:22:37.302Z,22.80
2019-05-28T07:23:37.298Z,22.76
2019-05-28T07:24:37.284Z,22.48
2019-05-28T07:25:37.257Z,22.44
2019-05-28T07:26:37.253Z,22.32
2019-05-28T07:27:37.248Z,22.41
2019-05-28T07:28:37.267Z,22.55
2019-05-28T07:29:37.232Z,22.69
2019-05-28T07:30:37.256Z,22.96
2019-05-28T07:31:37.199Z,23.05
2019-05-28T07:32:37.198Z,22.99
2019-05-28T07:33:37.178Z,22.81
2019-05-28T07:34:37.268Z,22.87
2019-05-28T07:35:45.768Z,22.96
2019-05-28T07:36:38.194Z,22.76
2019-05-28T07:37:37.131Z,22.81
2019-05-28T07:38:37.127Z,22.76
2019-05-28T07:39:37.111Z,22.53
2019-05-28T07:40:37.117Z,22.47
2019-05-28T07:41:37.086Z,22.35
2019-05-28T07:42:37.074Z,22.36
2019-05-28T07:43:37.065Z,22.55
2019-05-28T07:44:37.054Z,22.65
2019-05-28T07:45:37.084Z,22.87
2019-05-28T07:46:37.029Z,23.18
2019-05-28T07:47:37.027Z,23.69
2019-05-28T07:48:37.004Z,23.99
2019-05-28T07:49:37.067Z,24.20
2019-05-28T07:50:36.988Z,24.32
2019-05-28T07:51:36.996Z,24.47
2019-05-28T07:52:36.962Z,24.69
2019-05-28T07:53:40.390Z,24.89
2019-05-28T07:54:39.335Z,24.99
2019-05-28T07:55:36.972Z,25.29
2019-05-28T07:56:39.644Z,25.46
2019-05-28T07:57:36.975Z,25.68
2019-05-28T07:58:36.897Z,25.77
2019-05-28T07:59:36.888Z,25.66
2019-05-28T08:00:36.863Z,25.54
2019-05-28T08:01:36.858Z,25.72
2019-05-28T08:02:36.882Z,25.60
2019-05-28T08:03:36.835Z,25.80
2019-05-28T08:04:46.772Z,25.90
2019-05-28T08:05:37.822Z,25.75
2019-05-28T08:06:53.477Z,26.13
2019-05-28T08:07:37.816Z,26.40
2019-05-28T08:08:36.778Z,26.97
2019-05-28T08:09:36.785Z,27.18
2019-05-28T08:10:36.753Z,27.36
2019-05-28T08:11:36.745Z,27.67
2019-05-28T08:12:36.737Z,27.87
2019-05-28T08:13:40.607Z,28.00
2019-05-28T08:14:36.724Z,28.17
2019-05-28T08:15:36.703Z,28.14
2019-05-28T08:16:51.731Z,28.23
2019-05-28T08:17:37.693Z,28.29
2019-05-28T08:18:36.722Z,28.44
2019-05-28T08:19:36.653Z,28.32
2019-05-28T08:20:36.653Z,28.49
2019-05-28T08:21:36.641Z,28.54
2019-05-28T08:22:42.328Z,28.60
2019-05-28T08:23:37.632Z,28.52
2019-05-28T08:24:36.629Z,28.20
2019-05-28T08:25:46.847Z,27.77
2019-05-28T08:26:37.614Z,28.01
2019-05-28T08:27:36.580Z,28.48
2019-05-28T08:28:36.646Z,29.19
2019-05-28T08:29:36.557Z,29.57
2019-05-28T08:30:36.560Z,29.86
2019-05-28T08:31:36.532Z,29.86
2019-05-28T08:32:36.521Z,29.73
2019-05-28T08:33:36.512Z,29.56
2019-05-28T08:34:36.570Z,29.34
2019-05-28T08:35:36.554Z,29.13
2019-05-28T08:36:36.501Z,28.88
2019-05-28T08:37:36.478Z,28.42
2019-05-28T08:38:36.457Z,26.93
2019-05-28T08:39:36.453Z,26.65
2019-05-28T08:40:36.435Z,26.89
2019-05-28T08:41:36.451Z,27.39
2019-05-28T08:42:36.435Z,27.71
2019-05-28T08:43:36.404Z,27.87
2019-05-28T08:44:36.406Z,28.22
2019-05-28T08:45:36.393Z,28.57
2019-05-28T08:46:36.396Z,29.14
2019-05-28T08:47:36.352Z,29.44
2019-05-28T08:48:36.345Z,29.56
2019-05-28T08:49:36.345Z,29.47
2019-05-28T08:50:36.327Z,29.38
2019-05-28T08:51:36.309Z,29.16
2019-05-28T08:52:36.356Z,28.70
2019-05-28T08:53:36.286Z,28.12
2019-05-28T08:54:36.283Z,27.63
2019-05-28T08:55:36.289Z,26.99
2019-05-28T08:56:36.254Z,26.41
2019-05-28T08:57:36.315Z,26.00
2019-05-28T08:58:36.256Z,25.77
2019-05-28T08:59:36.229Z,25.60
2019-05-28T09:00:36.213Z,25.28
2019-05-28T09:01:36.206Z,24.68
2019-05-28T09:02:36.197Z,24.17
2019-05-28T09:03:36.203Z,23.88
2019-05-28T09:04:36.182Z,23.63
2019-05-28T09:05:36.165Z,23.59
2019-05-28T09:06:36.222Z,23.09
2019-05-28T09:07:36.133Z,22.91
2019-05-28T09:08:39.670Z,22.99
2019-05-28T09:09:36.126Z,23.51
2019-05-28T09:10:36.105Z,23.91
2019-05-28T09:11:36.093Z,24.35
2019-05-28T09:12:36.088Z,25.14
2019-05-28T09:13:36.080Z,24.99
2019-05-28T09:14:54.907Z,24.78
2019-05-28T09:15:37.042Z,24.45
2019-05-28T09:16:36.032Z,24.29
2019-05-28T09:17:36.024Z,23.99
2019-05-28T09:18:36.022Z,23.76
2019-05-28T09:19:36.028Z,23.58
2019-05-28T09:20:36.001Z,23.63
2019-05-28T09:21:35.987Z,23.36
2019-05-28T09:22:35.976Z,23.40
2019-05-28T09:23:35.966Z,23.41
2019-05-28T09:24:35.959Z,23.68
2019-05-28T09:25:35.955Z,23.56
2019-05-28T09:26:35.925Z,23.59
2019-05-28T09:27:35.940Z,23.54
2019-05-28T09:28:35.904Z,23.41
2019-05-28T09:29:35.918Z,23.21
2019-05-28T09:30:35.887Z,22.98
2019-05-28T09:31:35.879Z,22.96
2019-05-28T09:32:35.872Z,22.84
2019-05-28T09:33:35.849Z,22.96
2019-05-28T09:34:35.855Z,22.94
2019-05-28T09:35:44.596Z,23.03
2019-05-28T09:36:36.819Z,23.17
2019-05-28T09:37:35.806Z,22.98
2019-05-28T09:38:35.790Z,23.08
2019-05-28T09:39:35.785Z,23.31
2019-05-28T09:40:49.033Z,23.51
2019-05-28T09:41:36.769Z,23.58
2019-05-28T09:42:35.758Z,23.88
2019-05-28T09:43:35.761Z,24.06
2019-05-28T09:44:35.729Z,24.08
2019-05-28T09:45:35.769Z,23.93
2019-05-28T09:46:35.708Z,23.86
2019-05-28T09:47:35.708Z,23.81
2019-05-28T09:48:35.692Z,23.80
2019-05-28T09:49:35.699Z,23.91
2019-05-28T09:50:35.667Z,24.11
2019-05-28T09:51:35.721Z,24.39
2019-05-28T09:52:52.561Z,24.65
2019-05-28T09:53:36.639Z,24.76
2019-05-28T09:54:35.627Z,25.04
2019-05-28T09:55:35.672Z,25.28
2019-05-28T09:56:35.608Z,25.41
2019-05-28T09:57:46.887Z,25.47
2019-05-28T09:58:36.616Z,25.46
2019-05-28T09:59:41.422Z,25.41
2019-05-28T10:00:36.551Z,25.22
2019-05-28T10:01:37.231Z,25.06
2019-05-28T10:02:35.551Z,24.89
2019-05-28T10:03:35.522Z,24.99
2019-05-28T10:04:47.901Z,25.01
2019-05-28T10:05:36.504Z,24.91
2019-05-28T10:06:37.424Z,24.78
2019-05-28T10:07:35.474Z,24.76
2019-05-28T10:08:35.465Z,24.84
2019-05-28T10:09:35.454Z,24.77
2019-05-28T10:10:35.452Z,24.69
2019-05-28T10:11:35.440Z,24.53
2019-05-28T10:12:35.445Z,24.39
2019-05-28T10:13:39.723Z,23.98
2019-05-28T10:14:36.437Z,23.46
2019-05-28T10:15:35.407Z,23.40
2019-05-28T10:16:35.375Z,23.51
2019-05-28T10:17:35.376Z,23.61
2019-05-28T10:18:35.374Z,23.74
2019-05-28T10:19:35.346Z,24.55
2019-05-28T10:20:37.916Z,25.54
2019-05-28T10:21:35.327Z,26.38
2019-05-28T10:22:35.337Z,26.83
2019-05-28T10:23:35.317Z,27.15
2019-05-28T10:24:35.304Z,27.30
2019-05-28T10:25:35.282Z,27.58
2019-05-28T10:26:35.281Z,27.48
2019-05-28T10:27:35.269Z,27.74
2019-05-28T10:28:35.272Z,28.26
2019-05-28T10:29:35.238Z,27.90
2019-05-28T10:30:35.239Z,27.49
2019-05-28T10:31:35.217Z,27.42
2019-05-28T10:32:35.208Z,27.36
2019-05-28T10:33:35.196Z,27.65
2019-05-28T10:34:35.185Z,27.68
2019-05-28T10:35:35.187Z,27.29
2019-05-28T10:36:37.813Z,26.95
2019-05-28T10:37:35.153Z,27.44
2019-05-28T10:38:35.151Z,28.37
2019-05-28T10:39:35.125Z,28.85
2019-05-28T10:40:35.147Z,29.56
2019-05-28T10:41:35.111Z,29.82
2019-05-28T10:42:35.117Z,29.82
2019-05-28T10:43:35.103Z,29.66
2019-05-28T10:44:35.073Z,29.26
2019-05-28T10:45:35.099Z,28.60
2019-05-28T10:46:35.058Z,28.62
2019-05-28T10:47:35.061Z,28.79
2019-05-28T10:48:35.028Z,29.68
2019-05-28T10:49:35.021Z,30.50
2019-05-28T10:50:35.064Z,31.54
2019-05-28T10:51:34.998Z,31.14
2019-05-28T10:52:34.991Z,30.10
2019-05-28T10:53:34.986Z,29.23
2019-05-28T10:54:34.984Z,29.13
2019-05-28T10:55:34.958Z,29.68
2019-05-28T10:56:34.955Z,30.59
2019-05-28T10:57:34.937Z,30.85
2019-05-28T10:58:34.943Z,31.20
2019-05-28T10:59:34.947Z,30.68
2019-05-28T11:00:34.897Z,29.94
2019-05-28T11:01:34.908Z,30.24
2019-05-28T11:02:34.880Z,30.43
2019-05-28T11:03:34.868Z,30.08
2019-05-28T11:04:34.890Z,29.34
2019-05-28T11:05:34.889Z,28.63
2019-05-28T11:06:50.585Z,28.27
2019-05-28T11:07:35.822Z,27.82
2019-05-28T11:08:34.816Z,27.49
2019-05-28T11:09:34.806Z,27.12
2019-05-28T11:10:34.806Z,26.73
2019-05-28T11:11:34.817Z,26.26
2019-05-28T11:12:34.777Z,26.13
2019-05-28T11:13:34.763Z,25.91
2019-05-28T11:14:34.757Z,25.98
2019-05-28T11:15:34.739Z,26.53
2019-05-28T11:16:34.745Z,26.95
2019-05-28T11:17:34.786Z,27.22
2019-05-28T11:18:34.708Z,27.12
2019-05-28T11:19:34.762Z,26.80
2019-05-28T11:20:34.690Z,26.83
2019-05-28T11:21:34.684Z,27.29
2019-05-28T11:22:34.676Z,27.42
2019-05-28T11:23:34.682Z,26.92
2019-05-28T11:24:34.652Z,26.60
2019-05-28T11:25:34.651Z,26.47
2019-05-28T11:26:34.625Z,26.26
2019-05-28T11:27:37.210Z,25.98
2019-05-28T11:28:34.625Z,25.99
2019-05-28T11:29:34.592Z,25.96
2019-05-28T11:30:34.574Z,25.68
2019-05-28T11:31:34.565Z,25.41
2019-05-28T11:32:34.568Z,25.28
2019-05-28T11:33:34.546Z,25.01
2019-05-28T11:34:34.583Z,24.92
2019-05-28T11:35:34.532Z,25.16
2019-05-28T11:36:34.508Z,25.25
2019-05-28T11:37:34.500Z,25.46
2019-05-28T11:38:34.496Z,25.48
2019-05-28T11:39:34.502Z,25.41
2019-05-28T11:40:34.476Z,25.16
2019-05-28T11:41:42.110Z,25.04
2019-05-28T11:42:35.445Z,25.14
2019-05-28T11:43:34.443Z,25.41
2019-05-28T11:44:34.436Z,25.38
2019-05-28T11:45:34.411Z,25.44
2019-05-28T11:46:34.417Z,25.32
2019-05-28T11:47:34.389Z,25.22
2019-05-28T11:48:34.385Z,25.28
2019-05-28T11:49:34.397Z,25.10
2019-05-28T11:50:34.400Z,24.69
2019-05-28T11:51:34.366Z,24.38
2019-05-28T11:52:34.338Z,24.23
2019-05-28T11:53:36.811Z,24.14
2019-05-28T11:54:34.751Z,23.96
2019-05-28T11:55:34.310Z,23.74
2019-05-28T11:56:34.304Z,23.66
2019-05-28T11:57:34.276Z,23.59
2019-05-28T11:58:34.278Z,23.69
2019-05-28T11:59:34.278Z,23.76
2019-05-28T12:00:34.265Z,23.98
2019-05-28T12:01:35.533Z,24.06
2019-05-28T12:02:34.228Z,24.50
2019-05-28T12:03:34.273Z,24.68
2019-05-28T12:04:34.212Z,25.07
2019-05-28T12:05:34.253Z,25.38
2019-05-28T12:06:38.140Z,25.80
2019-05-28T12:07:34.207Z,26.16
2019-05-28T12:08:34.181Z,26.34
2019-05-28T12:09:34.185Z,26.09
2019-05-28T12:10:34.145Z,25.93
2019-05-28T12:11:34.145Z,25.41
2019-05-28T12:12:34.134Z,25.22
2019-05-28T12:13:34.141Z,25.31
2019-05-28T12:14:34.131Z,25.23
2019-05-28T12:15:34.085Z,25.21
2019-05-28T12:16:34.100Z,25.04
2019-05-28T12:17:42.635Z,24.89
2019-05-28T12:18:35.064Z,24.65
2019-05-28T12:19:34.061Z,24.26
2019-05-28T12:20:34.049Z,23.77
2019-05-28T12:21:34.064Z,23.55
2019-05-28T12:22:34.009Z,23.28
2019-05-28T12:23:33.997Z,23.17
2019-05-28T12:24:33.998Z,23.20
2019-05-28T12:25:33.987Z,23.24
2019-05-28T12:26:34.027Z,23.31
2019-05-28T12:27:33.964Z,23.23
2019-05-28T12:28:38.153Z,23.44
2019-05-28T12:29:33.938Z,23.51
2019-05-28T12:30:33.939Z,23.43
2019-05-28T12:31:33.934Z,23.44
2019-05-28T12:32:33.948Z,23.56
2019-05-28T12:33:33.906Z,23.69
2019-05-28T12:34:33.882Z,23.93
2019-05-28T12:35:33.885Z,24.06
2019-05-28T12:36:33.877Z,24.11
2019-05-28T12:37:47.270Z,23.93
2019-05-28T12:38:34.876Z,23.98
2019-05-28T12:39:33.821Z,24.36
2019-05-28T12:40:47.243Z,24.60
2019-05-28T12:41:34.800Z,24.77
2019-05-28T12:42:33.792Z,24.45
2019-05-28T12:43:33.780Z,24.20
2019-05-28T12:44:42.167Z,23.66
2019-05-28T12:45:36.224Z,23.51
2019-05-28T12:46:34.043Z,23.51
2019-05-28T12:47:33.760Z,23.58
2019-05-28T12:48:33.752Z,23.68
2019-05-28T12:49:33.744Z,23.80
2019-05-28T12:50:33.704Z,23.98
2019-05-28T12:51:33.696Z,24.55
2019-05-28T12:52:33.689Z,24.89